createdAt,value
2023-05-12T00:01:07.679Z,100164.38
2023-05-12T00:03:34.420Z,100154.50
2023-05-12T00:06:01.528Z,100153.34
2023-05-12T00:08:28.121Z,100150.16
2023-05-12T00:10:54.835Z,100149.84
2023-05-12T00:13:21.490Z,100156.03
2023-05-12T00:15:48.284Z,100150.22
2023-05-12T00:18:14.981Z,100153.88
2023-05-12T00:20:41.636Z,100147.84
2023-05-12T00:23:08.254Z,100153.72
2023-05-12T00:25:35.137Z,100157.84
2023-05-12T00:28:01.792Z,100144.88
2023-05-12T00:30:28.542Z,100151.06
2023-05-12T00:32:55.184Z,100155.41
2023-05-12T00:35:22.083Z,100150.16
2023-05-12T00:37:48.733Z,100148.31
2023-05-12T00:40:15.328Z,100146.19
2023-05-12T00:42:41.955Z,100144.09
2023-05-12T00:45:09.081Z,100144.31
2023-05-12T00:47:35.880Z,100139.72
2023-05-12T00:50:04.313Z,100137.63
2023-05-12T00:52:30.997Z,100137.22
2023-05-12T00:54:58.348Z,100134.53
2023-05-12T00:57:26.231Z,100130.16
2023-05-12T00:59:52.841Z,100123.72
2023-05-12T01:02:19.806Z,100119.81
2023-05-12T01:04:47.189Z,100124.88
2023-05-12T01:07:19.056Z,100125.59
2023-05-12T01:09:45.755Z,100133.34
2023-05-12T01:12:12.418Z,100129.25
2023-05-12T01:14:39.606Z,100125.34
2023-05-12T01:17:12.314Z,100131.31
2023-05-12T01:19:48.737Z,100129.03
2023-05-12T01:22:17.231Z,100132.47
2023-05-12T01:24:52.714Z,100124.75
2023-05-12T01:27:21.424Z,100139.50
2023-05-12T01:29:48.380Z,100137.88
2023-05-12T01:32:15.543Z,100138.97
2023-05-12T01:34:43.174Z,100136.81
2023-05-12T01:37:10.439Z,100141.13
2023-05-12T01:39:37.674Z,100137.75
2023-05-12T01:42:05.297Z,100141.06
2023-05-12T01:44:31.979Z,100148.41
2023-05-12T01:46:58.603Z,100150.69
2023-05-12T01:49:25.207Z,100154.91
2023-05-12T01:51:51.894Z,100161.28
2023-05-12T01:54:18.735Z,100150.13
2023-05-12T01:56:45.395Z,100148.63
2023-05-12T01:59:12.059Z,100156.84
2023-05-12T02:01:38.842Z,100152.13
2023-05-12T02:04:05.604Z,100153.53
2023-05-12T02:06:32.276Z,100154.13
2023-05-12T02:08:58.888Z,100155.28
2023-05-12T02:11:25.592Z,100149.53
2023-05-12T02:13:52.260Z,100151.91
2023-05-12T02:16:18.920Z,100151.59
2023-05-12T02:18:45.674Z,100156.19
2023-05-12T02:21:12.374Z,100152.13
2023-05-12T02:23:39.051Z,100155.72
2023-05-12T02:26:05.660Z,100158.16
2023-05-12T02:28:32.468Z,100158.97
2023-05-12T02:30:59.390Z,100157.78
2023-05-12T02:33:26.018Z,100157.31
2023-05-12T02:35:52.676Z,100160.72
2023-05-12T02:38:19.316Z,100162.50
2023-05-12T02:40:46.994Z,100159.31
2023-05-12T02:43:13.684Z,100163.50
2023-05-12T02:45:40.409Z,100163.09
2023-05-12T02:48:07.065Z,100173.31
2023-05-12T02:50:33.870Z,100170.63
2023-05-12T02:53:02.910Z,100165.75
2023-05-12T02:55:29.783Z,100166.56
2023-05-12T02:57:57.110Z,100164.66
2023-05-12T03:00:23.833Z,100165.69
2023-05-12T03:02:50.550Z,100171.50
2023-05-12T03:05:17.492Z,100161.50
2023-05-12T03:07:44.129Z,100168.94
2023-05-12T03:10:10.909Z,100166.09
2023-05-12T03:12:37.694Z,100166.72
2023-05-12T03:15:04.763Z,100157.88
2023-05-12T03:17:31.405Z,100165.00
2023-05-12T03:19:58.012Z,100162.31
2023-05-12T03:22:24.704Z,100168.47
2023-05-12T03:24:51.311Z,100170.16
2023-05-12T03:27:19.022Z,100176.63
2023-05-12T03:29:45.876Z,100172.28
2023-05-12T03:32:13.178Z,100173.56
2023-05-12T03:34:39.873Z,100170.84
2023-05-12T03:37:06.577Z,100174.22
2023-05-12T03:39:33.477Z,100175.22
2023-05-12T03:42:00.183Z,100176.72
2023-05-12T03:44:26.797Z,100173.75
2023-05-12T03:46:53.604Z,100171.84
2023-05-12T03:49:20.291Z,100169.84
2023-05-12T03:51:46.930Z,100175.78
2023-05-12T03:54:13.568Z,100173.63
2023-05-12T03:56:40.181Z,100175.28
2023-05-12T03:59:06.927Z,100183.63
2023-05-12T04:01:33.750Z,100183.75
2023-05-12T04:04:00.370Z,100186.22
2023-05-12T04:06:26.997Z,100184.84
2023-05-12T04:08:53.701Z,100190.06
2023-05-12T04:11:20.307Z,100193.13
2023-05-12T04:13:46.931Z,100194.22
2023-05-12T04:16:13.636Z,100190.19
2023-05-12T04:18:40.268Z,100196.38
2023-05-12T04:21:06.972Z,100197.44
2023-05-12T04:23:33.640Z,100193.41
2023-05-12T04:26:03.735Z,100209.34
2023-05-12T04:28:30.373Z,100199.59
2023-05-12T04:30:56.997Z,100202.41
2023-05-12T04:33:26.196Z,100207.47
2023-05-12T04:35:56.356Z,100205.81
2023-05-12T04:38:22.985Z,100203.66
2023-05-12T04:40:49.595Z,100200.72
2023-05-12T04:45:45.716Z,100195.53
2023-05-12T04:48:12.337Z,100201.53
2023-05-12T04:50:39.000Z,100193.66
2023-05-12T04:53:05.603Z,100200.69
2023-05-12T04:55:32.207Z,100207.56
2023-05-12T04:57:58.992Z,100202.91
2023-05-12T05:00:25.770Z,100200.75
2023-05-12T05:02:52.700Z,100204.63
2023-05-12T05:05:19.958Z,100205.09
2023-05-12T05:07:46.790Z,100197.25
2023-05-12T05:10:13.465Z,100207.00
2023-05-12T05:12:40.092Z,100204.44
2023-05-12T05:15:07.274Z,100201.56
2023-05-12T05:17:33.934Z,100202.13
2023-05-12T05:20:00.641Z,100204.16
2023-05-12T05:22:27.462Z,100198.44
2023-05-12T05:24:54.159Z,100197.94
2023-05-12T05:27:20.765Z,100199.25
2023-05-12T05:29:47.547Z,100206.09
2023-05-12T05:32:14.182Z,100205.72
2023-05-12T05:34:40.902Z,100211.22
2023-05-12T05:37:07.596Z,100214.09
2023-05-12T05:39:34.173Z,100213.44
2023-05-12T05:42:00.765Z,100218.19
2023-05-12T05:44:27.383Z,100220.28
2023-05-12T05:46:54.027Z,100221.50
2023-05-12T05:49:20.678Z,100218.00
2023-05-12T05:51:47.305Z,100220.06
2023-05-12T05:54:13.998Z,100220.03
2023-05-12T05:56:40.703Z,100220.44
2023-05-12T05:59:07.276Z,100227.06
2023-05-12T06:01:34.070Z,100224.03
2023-05-12T06:04:00.961Z,100225.16
2023-05-12T06:06:29.034Z,100223.72
2023-05-12T06:08:55.660Z,100228.41
2023-05-12T06:11:22.336Z,100228.44
2023-05-12T06:13:49.157Z,100224.38
2023-05-12T06:16:15.940Z,100225.56
2023-05-12T06:18:42.602Z,100237.13
2023-05-12T06:21:09.305Z,100227.59
2023-05-12T06:23:35.931Z,100227.72
2023-05-12T06:26:02.588Z,100230.56
2023-05-12T06:28:29.211Z,100233.06
2023-05-12T06:30:55.911Z,100232.56
2023-05-12T06:33:22.576Z,100236.50
2023-05-12T06:35:49.288Z,100231.50
2023-05-12T06:38:16.016Z,100229.31
2023-05-12T06:40:42.679Z,100237.91
2023-05-12T06:43:09.313Z,100242.97
2023-05-12T06:45:36.499Z,100241.28
2023-05-12T06:48:03.366Z,100229.44
2023-05-12T06:50:30.044Z,100224.53
2023-05-12T06:52:56.731Z,100225.03
2023-05-12T06:55:23.632Z,100228.63
2023-05-12T06:57:50.430Z,100228.59
2023-05-12T07:00:17.327Z,100236.53
2023-05-12T07:02:43.935Z,100229.59
2023-05-12T07:05:10.733Z,100231.13
2023-05-12T07:07:37.362Z,100235.59
2023-05-12T07:10:04.392Z,100232.63
2023-05-12T07:12:30.995Z,100232.53
2023-05-12T07:14:57.593Z,100234.81
2023-05-12T07:17:24.314Z,100234.50
2023-05-12T07:19:51.029Z,100229.13
2023-05-12T07:22:17.642Z,100232.31
2023-05-12T07:24:44.689Z,100231.66
2023-05-12T07:27:11.369Z,100237.63
2023-05-12T07:29:37.982Z,100233.91
2023-05-12T07:32:05.020Z,100230.84
2023-05-12T07:34:34.300Z,100227.28
2023-05-12T07:37:00.977Z,100231.88
2023-05-12T07:39:27.973Z,100222.59
2023-05-12T07:41:54.549Z,100226.59
2023-05-12T07:44:21.340Z,100232.09
2023-05-12T07:46:47.939Z,100231.06
2023-05-12T07:49:14.628Z,100234.63
2023-05-12T07:51:41.275Z,100227.03
2023-05-12T07:54:07.940Z,100230.22
2023-05-12T07:56:34.649Z,100235.03
2023-05-12T07:59:01.330Z,100232.22
2023-05-12T08:01:27.953Z,100237.84
2023-05-12T08:03:54.690Z,100238.72
2023-05-12T08:06:21.438Z,100239.53
2023-05-12T08:08:48.079Z,100240.47
2023-05-12T08:11:14.757Z,100242.13
2023-05-12T08:13:41.370Z,100244.56
2023-05-12T08:16:08.257Z,100246.16
2023-05-12T08:18:35.301Z,100242.56
2023-05-12T08:21:01.942Z,100250.63
2023-05-12T08:23:28.664Z,100250.09
2023-05-12T08:25:55.306Z,100249.53
2023-05-12T08:28:21.949Z,100240.81
2023-05-12T08:30:48.759Z,100246.94
2023-05-12T08:33:15.570Z,100259.25
2023-05-12T08:35:42.515Z,100250.28
2023-05-12T08:38:09.143Z,100256.16
2023-05-12T08:40:44.420Z,100257.81
2023-05-12T08:43:18.650Z,100258.34
2023-05-12T08:45:45.890Z,100258.69
2023-05-12T08:48:13.350Z,100261.81
2023-05-12T08:50:41.290Z,100265.06
2023-05-12T08:53:11.211Z,100269.81
2023-05-12T08:55:39.678Z,100271.22
2023-05-12T08:58:09.555Z,100262.06
2023-05-12T09:00:38.979Z,100267.38
2023-05-12T09:03:06.575Z,100268.44
2023-05-12T09:05:33.964Z,100269.66
2023-05-12T09:08:01.545Z,100272.47
2023-05-12T09:13:08.958Z,100289.59
2023-05-12T09:15:39.860Z,100291.91
2023-05-12T09:18:06.636Z,100298.63
2023-05-12T09:20:33.922Z,100302.56
2023-05-12T09:23:13.125Z,100302.84
2023-05-12T09:25:40.030Z,100310.31
2023-05-12T09:28:06.709Z,100306.97
2023-05-12T09:30:33.342Z,100315.09
2023-05-12T09:33:10.122Z,100312.38
2023-05-12T09:35:45.287Z,100316.34
2023-05-12T09:38:13.985Z,100321.13
2023-05-12T09:40:40.777Z,100324.47
2023-05-12T09:43:08.337Z,100314.50
2023-05-12T09:45:38.158Z,100313.22
2023-05-12T09:48:12.388Z,100323.47
2023-05-12T09:50:52.333Z,100317.72
2023-05-12T09:53:19.776Z,100324.78
2023-05-12T09:55:47.858Z,100324.84
2023-05-12T09:58:16.998Z,100323.91
2023-05-12T10:01:09.170Z,100328.38
2023-05-12T10:03:34.826Z,100321.25
2023-05-12T10:06:05.598Z,100315.78
2023-05-12T10:08:49.209Z,100310.03
2023-05-12T10:11:16.620Z,100315.72
2023-05-12T10:13:43.691Z,100306.09
2023-05-12T10:16:10.436Z,100316.22
2023-05-12T10:18:37.536Z,100312.28
2023-05-12T10:21:05.440Z,100304.13
2023-05-12T10:23:32.305Z,100308.13
2023-05-12T10:25:59.108Z,100316.13
2023-05-12T10:28:25.752Z,100307.72
2023-05-12T10:30:53.523Z,100307.88
2023-05-12T10:33:20.424Z,100309.16
2023-05-12T10:35:49.326Z,100312.50
2023-05-12T10:38:16.398Z,100306.97
2023-05-12T10:40:51.842Z,100314.41
2023-05-12T10:43:23.006Z,100314.75
2023-05-12T10:46:12.187Z,100316.91
2023-05-12T10:49:08.679Z,100322.16
2023-05-12T10:51:59.139Z,100318.66
2023-05-12T10:54:26.040Z,100320.31
2023-05-12T10:56:58.524Z,100318.81
2023-05-12T10:59:26.618Z,100320.06
2023-05-12T11:02:03.961Z,100323.66
2023-05-12T11:04:51.284Z,100320.03
2023-05-12T11:07:30.618Z,100322.59
2023-05-12T11:10:02.444Z,100316.66
2023-05-12T11:12:31.269Z,100321.84
2023-05-12T11:15:03.747Z,100321.84
2023-05-12T11:17:31.128Z,100311.78
2023-05-12T11:19:57.841Z,100313.47
2023-05-12T11:22:24.839Z,100319.19
2023-05-12T11:24:53.287Z,100316.16
2023-05-12T11:27:22.242Z,100318.72
2023-05-12T11:30:00.446Z,100314.25
2023-05-12T11:32:27.586Z,100314.09
2023-05-12T11:34:54.266Z,100305.66
2023-05-12T11:37:21.525Z,100313.44
2023-05-12T11:39:48.656Z,100315.66
2023-05-12T11:42:17.767Z,100315.09
2023-05-12T11:44:50.024Z,100306.75
2023-05-12T11:47:20.299Z,100304.13
2023-05-12T11:49:46.891Z,100302.88
2023-05-12T11:52:14.134Z,100305.78
2023-05-12T11:54:51.122Z,100307.34
2023-05-12T11:57:32.873Z,100304.78
2023-05-12T12:00:02.040Z,100313.38
2023-05-12T12:02:29.633Z,100310.53
2023-05-12T12:04:57.216Z,100313.59
2023-05-12T12:07:37.709Z,100316.25
2023-05-12T12:10:16.898Z,100320.91
2023-05-12T12:12:44.456Z,100324.22
2023-05-12T12:15:11.758Z,100313.31
2023-05-12T12:17:39.716Z,100310.13
2023-05-12T12:20:07.888Z,100318.47
2023-05-12T12:22:34.898Z,100321.06
2023-05-12T12:25:02.732Z,100324.84
2023-05-12T12:27:29.613Z,100311.66
2023-05-12T12:29:56.339Z,100320.34
2023-05-12T12:32:23.149Z,100318.50
2023-05-12T12:34:50.087Z,100314.34
2023-05-12T12:37:16.721Z,100321.56
2023-05-12T12:39:43.362Z,100323.47
2023-05-12T12:42:10.112Z,100328.38
2023-05-12T12:44:36.731Z,100327.00
2023-05-12T12:47:03.420Z,100329.28
2023-05-12T12:49:30.167Z,100336.22
2023-05-12T12:51:56.808Z,100329.06
2023-05-12T12:54:23.532Z,100328.66
2023-05-12T12:56:50.244Z,100323.28
2023-05-12T12:59:16.857Z,100325.34
2023-05-12T13:01:43.761Z,100330.91
2023-05-12T13:04:10.521Z,100330.25
2023-05-12T13:06:37.168Z,100328.19
2023-05-12T13:09:03.859Z,100325.69
2023-05-12T13:11:30.642Z,100324.28
2023-05-12T13:13:57.250Z,100327.47
2023-05-12T13:16:23.854Z,100327.13
2023-05-12T13:18:50.524Z,100327.28
2023-05-12T13:21:17.288Z,100325.13
2023-05-12T13:23:43.951Z,100327.84
2023-05-12T13:26:10.657Z,100329.34
2023-05-12T13:28:37.397Z,100318.16
2023-05-12T13:31:04.313Z,100325.97
2023-05-12T13:33:31.020Z,100319.66
2023-05-12T13:35:57.628Z,100310.63
2023-05-12T13:38:24.250Z,100317.56
2023-05-12T13:40:51.025Z,100320.38
2023-05-12T13:43:19.123Z,100315.53
2023-05-12T13:45:47.917Z,100322.16
2023-05-12T13:48:14.604Z,100316.13
2023-05-12T13:50:41.617Z,100312.56
2023-05-12T13:53:08.255Z,100309.97
2023-05-12T13:55:35.165Z,100321.72
2023-05-12T13:58:01.843Z,100325.09
2023-05-12T14:00:28.507Z,100327.09
2023-05-12T14:02:55.375Z,100316.97
2023-05-12T14:05:22.671Z,100320.25
2023-05-12T14:07:49.793Z,100319.94
2023-05-12T14:10:16.579Z,100327.72
2023-05-12T14:12:43.398Z,100325.59
2023-05-12T14:15:26.069Z,100328.84
2023-05-12T14:17:56.048Z,100342.00
2023-05-12T14:20:22.999Z,100348.50
2023-05-12T14:22:49.615Z,100355.91
2023-05-12T14:25:16.377Z,100354.16
2023-05-12T14:27:43.019Z,100353.78
2023-05-12T14:30:10.212Z,100361.28
2023-05-12T14:32:37.067Z,100364.47
2023-05-12T14:35:04.838Z,100364.81
2023-05-12T14:37:32.377Z,100367.06
2023-05-12T14:39:59.047Z,100376.09
2023-05-12T14:42:25.766Z,100376.91
2023-05-12T14:44:53.525Z,100381.31
2023-05-12T14:47:20.230Z,100379.09
2023-05-12T14:49:46.886Z,100382.34
2023-05-12T14:52:13.516Z,100389.78
2023-05-12T14:54:40.421Z,100383.94
2023-05-12T14:57:09.853Z,100387.84
2023-05-12T14:59:36.490Z,100392.84
2023-05-12T15:02:03.257Z,100389.16
2023-05-12T15:04:29.967Z,100393.97
2023-05-12T15:06:56.635Z,100391.00
2023-05-12T15:09:24.673Z,100389.06
2023-05-12T15:11:51.340Z,100399.84
2023-05-12T15:14:18.013Z,100394.63
2023-05-12T15:16:44.707Z,100396.38
2023-05-12T15:19:11.482Z,100396.84
2023-05-12T15:21:38.170Z,100397.88
2023-05-12T15:24:04.936Z,100399.84
2023-05-12T15:26:34.205Z,100391.44
2023-05-12T15:29:01.210Z,100396.38
2023-05-12T15:31:31.173Z,100410.09
2023-05-12T15:33:57.926Z,100406.03
2023-05-12T15:36:24.647Z,100401.88
2023-05-12T15:38:51.478Z,100403.69
2023-05-12T15:41:18.160Z,100393.91
2023-05-12T15:43:44.837Z,100397.09
2023-05-12T15:46:11.782Z,100389.75
2023-05-12T15:48:39.383Z,100398.03
2023-05-12T15:51:09.574Z,100397.59
2023-05-12T15:53:36.275Z,100396.72
2023-05-12T15:56:04.657Z,100395.50
2023-05-12T15:58:31.649Z,100392.03
2023-05-12T16:00:59.190Z,100394.97
2023-05-12T16:03:26.030Z,100397.16
2023-05-12T16:05:53.088Z,100394.59
2023-05-12T16:08:19.748Z,100396.22
2023-05-12T16:10:48.636Z,100391.75
2023-05-12T16:13:15.264Z,100401.53
2023-05-12T16:15:42.018Z,100402.00
2023-05-12T16:18:11.151Z,100403.56
2023-05-12T16:20:38.216Z,100393.63
2023-05-12T16:23:04.838Z,100399.41
2023-05-12T16:25:31.540Z,100399.22
2023-05-12T16:27:58.151Z,100407.06
2023-05-12T16:30:24.961Z,100399.06
2023-05-12T16:32:51.617Z,100403.38
2023-05-12T16:35:18.466Z,100401.59
2023-05-12T16:37:45.391Z,100402.97
2023-05-12T16:40:12.218Z,100398.28
2023-05-12T16:42:38.866Z,100401.59
2023-05-12T16:45:06.037Z,100409.09
2023-05-12T16:47:32.995Z,100415.69
2023-05-12T16:49:59.888Z,100415.22
2023-05-12T16:52:27.015Z,100413.72
2023-05-12T16:54:55.959Z,100414.63
2023-05-12T16:57:23.224Z,100412.78
2023-05-12T16:59:50.049Z,100412.72
2023-05-12T17:02:16.842Z,100418.91
2023-05-12T17:04:44.077Z,100415.47
2023-05-12T17:07:10.828Z,100411.00
2023-05-12T17:09:37.580Z,100418.06
2023-05-12T17:12:04.677Z,100418.38
2023-05-12T17:14:31.671Z,100416.16
2023-05-12T17:16:58.424Z,100415.94
2023-05-12T17:19:25.127Z,100425.00
2023-05-12T17:21:51.746Z,100433.53
2023-05-12T17:24:18.394Z,100427.63
2023-05-12T17:26:45.003Z,100435.69
2023-05-12T17:29:11.882Z,100434.31
2023-05-12T17:31:38.729Z,100436.72
2023-05-12T17:34:05.699Z,100432.09
2023-05-12T17:36:32.502Z,100438.34
2023-05-12T17:38:59.159Z,100442.34
2023-05-12T17:41:27.013Z,100446.94
2023-05-12T17:43:55.053Z,100451.88
2023-05-12T17:46:21.699Z,100445.94
2023-05-12T17:48:48.608Z,100450.34
2023-05-12T17:51:15.366Z,100445.63
2023-05-12T17:53:41.991Z,100451.84
2023-05-12T17:56:08.644Z,100456.78
2023-05-12T17:58:35.273Z,100454.75
2023-05-12T18:01:02.053Z,100455.06
2023-05-12T18:03:28.667Z,100451.38
2023-05-12T18:05:55.329Z,100453.47
2023-05-12T18:08:24.873Z,100460.66
2023-05-12T18:10:51.467Z,100458.13
2023-05-12T18:13:20.453Z,100460.47
2023-05-12T18:15:49.108Z,100461.41
2023-05-12T18:18:15.715Z,100459.22
2023-05-12T18:20:42.450Z,100463.78
2023-05-12T18:23:09.070Z,100454.91
2023-05-12T18:25:35.823Z,100461.84
2023-05-12T18:28:05.224Z,100456.94
2023-05-12T18:30:31.901Z,100464.41
2023-05-12T18:32:58.574Z,100462.56
2023-05-12T18:35:25.261Z,100464.03
2023-05-12T18:37:51.924Z,100469.84
2023-05-12T18:40:18.584Z,100467.59
2023-05-12T18:42:45.186Z,100464.41
2023-05-12T18:45:11.913Z,100473.78
2023-05-12T18:47:38.581Z,100472.44
2023-05-12T18:50:05.636Z,100475.03
2023-05-12T18:52:32.296Z,100475.84
2023-05-12T18:54:58.927Z,100479.13
2023-05-12T18:57:26.894Z,100474.22
2023-05-12T18:59:53.510Z,100477.59
2023-05-12T19:02:20.090Z,100489.56
2023-05-12T19:04:46.745Z,100483.81
2023-05-12T19:07:13.331Z,100488.81
2023-05-12T19:09:39.911Z,100489.44
2023-05-12T19:12:09.927Z,100490.50
2023-05-12T19:14:37.718Z,100493.81
2023-05-12T19:17:04.739Z,100487.56
2023-05-12T19:19:34.279Z,100493.81
2023-05-12T19:22:00.908Z,100495.34
2023-05-12T19:24:27.757Z,100501.47
2023-05-12T19:26:54.418Z,100501.69
2023-05-12T19:29:21.215Z,100498.22
2023-05-12T19:31:48.087Z,100498.28
2023-05-12T19:34:15.081Z,100508.56
2023-05-12T19:36:41.878Z,100498.78
2023-05-12T19:39:08.488Z,100496.72
2023-05-12T19:41:35.284Z,100500.03
2023-05-12T19:44:01.958Z,100498.84
2023-05-12T19:46:29.495Z,100500.63
2023-05-12T19:48:56.200Z,100509.72
2023-05-12T19:51:22.894Z,100504.63
2023-05-12T19:53:49.562Z,100507.28
2023-05-12T19:56:16.308Z,100510.09
2023-05-12T19:58:42.956Z,100509.31
2023-05-12T20:01:11.034Z,100514.41
2023-05-12T20:03:37.702Z,100513.75
2023-05-12T20:06:06.222Z,100512.44
2023-05-12T20:08:32.891Z,100508.31
2023-05-12T20:11:02.587Z,100514.59
2023-05-12T20:13:29.234Z,100519.03
2023-05-12T20:15:55.859Z,100512.97
2023-05-12T20:18:22.725Z,100515.56
2023-05-12T20:20:49.610Z,100509.75
2023-05-12T20:23:16.477Z,100517.50
2023-05-12T20:25:43.103Z,100514.19
2023-05-12T20:28:09.713Z,100508.09
2023-05-12T20:30:37.482Z,100510.66
2023-05-12T20:33:04.260Z,100508.13
2023-05-12T20:35:30.944Z,100513.69
2023-05-12T20:37:57.519Z,100508.16
2023-05-12T20:40:24.222Z,100509.13
2023-05-12T20:42:51.227Z,100507.88
2023-05-12T20:45:18.160Z,100510.22
2023-05-12T20:47:44.816Z,100509.44
2023-05-12T20:50:11.565Z,100507.16
2023-05-12T20:52:40.212Z,100513.84
2023-05-12T20:55:07.796Z,100512.09
2023-05-12T20:57:34.707Z,100510.19
2023-05-12T21:00:01.720Z,100515.38
2023-05-12T21:02:29.239Z,100506.16
2023-05-12T21:04:56.325Z,100516.25
2023-05-12T21:07:22.926Z,100513.28
2023-05-12T21:09:49.666Z,100515.59
2023-05-12T21:12:16.578Z,100519.03
2023-05-12T21:14:44.453Z,100514.19
2023-05-12T21:17:12.041Z,100519.41
2023-05-12T21:19:40.002Z,100515.78
2023-05-12T21:22:08.099Z,100509.34
2023-05-12T21:24:35.012Z,100515.97
2023-05-12T21:27:02.235Z,100516.06
2023-05-12T21:29:29.060Z,100516.88
2023-05-12T21:31:55.751Z,100516.63
2023-05-12T21:34:22.410Z,100519.09
2023-05-12T21:36:49.045Z,100522.41
2023-05-12T21:39:15.806Z,100520.81
2023-05-12T21:41:42.583Z,100512.25
2023-05-12T21:44:11.059Z,100515.47
2023-05-12T21:46:38.042Z,100520.81
2023-05-12T21:49:04.854Z,100527.06
2023-05-12T21:51:31.535Z,100520.91
2023-05-12T21:53:58.196Z,100526.25
2023-05-12T21:56:25.047Z,100519.41
2023-05-12T21:58:51.666Z,100516.53
2023-05-12T22:01:18.610Z,100519.03
2023-05-12T22:03:47.943Z,100519.00
2023-05-12T22:06:14.631Z,100523.53
2023-05-12T22:08:41.595Z,100516.31
2023-05-12T22:11:08.308Z,100515.41
2023-05-12T22:13:35.024Z,100512.22
2023-05-12T22:16:01.680Z,100511.59
2023-05-12T22:18:28.366Z,100509.66
2023-05-12T22:20:55.068Z,100515.47
2023-05-12T22:23:21.750Z,100517.53
2023-05-12T22:25:48.395Z,100507.03
2023-05-12T22:28:15.102Z,100511.94
2023-05-12T22:30:41.737Z,100508.34
2023-05-12T22:33:08.622Z,100507.41
2023-05-12T22:35:35.424Z,100505.75
2023-05-12T22:38:02.246Z,100504.72
2023-05-12T22:40:28.852Z,100505.16
2023-05-12T22:42:55.459Z,100507.06
2023-05-12T22:45:22.124Z,100512.53
2023-05-12T22:47:48.966Z,100512.28
2023-05-12T22:50:15.704Z,100504.84
2023-05-12T22:52:42.696Z,100503.75
2023-05-12T22:55:12.158Z,100503.50
2023-05-12T22:57:38.759Z,100503.59
2023-05-12T23:00:06.871Z,100495.47
2023-05-12T23:02:33.599Z,100495.81
2023-05-12T23:05:00.238Z,100499.66
2023-05-12T23:07:26.987Z,100499.00
2023-05-12T23:09:53.706Z,100501.03
2023-05-12T23:12:20.320Z,100503.06
2023-05-12T23:14:47.105Z,100496.84
2023-05-12T23:17:13.709Z,100496.06
2023-05-12T23:19:40.328Z,100499.16
2023-05-12T23:22:06.910Z,100493.59
2023-05-12T23:24:36.077Z,100486.94
2023-05-12T23:27:02.897Z,100483.59
2023-05-12T23:29:29.550Z,100486.03
2023-05-12T23:31:56.288Z,100481.53
2023-05-12T23:34:22.990Z,100481.34
2023-05-12T23:36:49.696Z,100476.06
2023-05-12T23:39:16.355Z,100483.03
2023-05-12T23:41:43.018Z,100487.22
2023-05-12T23:44:09.634Z,100487.22
2023-05-12T23:46:36.301Z,100488.44
2023-05-12T23:49:03.074Z,100478.34
2023-05-12T23:51:29.787Z,100482.44
2023-05-12T23:53:56.398Z,100480.03
2023-05-12T23:56:23.199Z,100484.13
2023-05-12T23:58:49.829Z,100473.16
